Terminal Aerodrome Forecast
Issued by NWS

Home | Current Version | Previous Version | Graphics & Text | Print | Product List | Glossary On
Versions: 1 2 3 4 5 6 7 8 9 10 11 12 13 14 15 16 17
000
FTUS43 KBIS 070110 AAA
TAFDIK
TAF AMD
KDIK 070110Z 0701/0724 32015G25KT P6SM -RA OVC005
     FM070300 33014KT P6SM -RA SCT005 OVC015
     FM070700 33015G25KT 5SM -RA BR OVC015
     FM071200 32020G28KT P6SM OVC015
     FM071800 33015G25KT P6SM BKN035=

USA.gov is the U.S. government's official web portal to all federal, state and local government web resources and services.